sensor_id;sensor_type;location;lat;lon;timestamp;P1;durP1;ratioP1;P2;durP2;ratioP2
70385;SDS011;63206;55.650;37.500;2022-12-07T00:01:08;8.27;;;2.53;;
70385;SDS011;63206;55.650;37.500;2022-12-07T00:03:38;8.80;;;2.70;;
70385;SDS011;63206;55.650;37.500;2022-12-07T00:06:10;6.80;;;2.05;;
70385;SDS011;63206;55.650;37.500;2022-12-07T00:08:37;6.78;;;2.50;;
70385;SDS011;63206;55.650;37.500;2022-12-07T00:11:06;6.57;;;2.47;;
70385;SDS011;63206;55.650;37.500;2022-12-07T00:13:36;6.63;;;2.50;;
70385;SDS011;63206;55.650;37.500;2022-12-07T00:18:36;9.20;;;2.53;;
70385;SDS011;63206;55.650;37.500;2022-12-07T00:21:12;7.78;;;2.47;;
70385;SDS011;63206;55.650;37.500;2022-12-07T00:23:42;5.40;;;2.42;;
70385;SDS011;63206;55.650;37.500;2022-12-07T00:26:19;8.43;;;2.92;;
70385;SDS011;63206;55.650;37.500;2022-12-07T00:28:52;6.93;;;2.42;;
70385;SDS011;63206;55.650;37.500;2022-12-07T00:31:27;9.13;;;2.90;;
70385;SDS011;63206;55.650;37.500;2022-12-07T00:33:53;6.35;;;2.10;;
70385;SDS011;63206;55.650;37.500;2022-12-07T00:36:22;10.23;;;3.78;;
70385;SDS011;63206;55.650;37.500;2022-12-07T00:38:57;7.03;;;2.50;;
70385;SDS011;63206;55.650;37.500;2022-12-07T00:41:29;9.18;;;2.80;;
70385;SDS011;63206;55.650;37.500;2022-12-07T00:44:04;6.78;;;2.35;;
70385;SDS011;63206;55.650;37.500;2022-12-07T00:46:36;10.30;;;3.13;;
70385;SDS011;63206;55.650;37.500;2022-12-07T00:49:10;8.18;;;2.47;;
70385;SDS011;63206;55.650;37.500;2022-12-07T00:51:44;7.35;;;2.75;;
70385;SDS011;63206;55.650;37.500;2022-12-07T00:54:16;8.00;;;3.03;;
70385;SDS011;63206;55.650;37.500;2022-12-07T00:56:47;11.00;;;3.40;;
70385;SDS011;63206;55.650;37.500;2022-12-07T00:59:19;8.75;;;2.55;;
70385;SDS011;63206;55.650;37.500;2022-12-07T01:01:47;10.40;;;2.50;;
70385;SDS011;63206;55.650;37.500;2022-12-07T01:04:16;8.10;;;3.03;;
70385;SDS011;63206;55.650;37.500;2022-12-07T01:06:48;9.15;;;2.55;;
70385;SDS011;63206;55.650;37.500;2022-12-07T01:09:17;9.88;;;3.00;;
70385;SDS011;63206;55.650;37.500;2022-12-07T01:11:48;7.57;;;2.70;;
70385;SDS011;63206;55.650;37.500;2022-12-07T01:14:14;8.15;;;2.92;;
70385;SDS011;63206;55.650;37.500;2022-12-07T01:16:42;8.45;;;2.38;;
70385;SDS011;63206;55.650;37.500;2022-12-07T01:19:08;10.60;;;3.30;;
70385;SDS011;63206;55.650;37.500;2022-12-07T01:21:42;7.60;;;2.53;;
70385;SDS011;63206;55.650;37.500;2022-12-07T01:24:11;9.02;;;3.63;;
70385;SDS011;63206;55.650;37.500;2022-12-07T01:26:39;8.13;;;2.83;;
70385;SDS011;63206;55.650;37.500;2022-12-07T01:29:08;6.72;;;2.42;;
70385;SDS011;63206;55.650;37.500;2022-12-07T01:31:40;10.48;;;2.85;;
70385;SDS011;63206;55.650;37.500;2022-12-07T01:34:08;8.93;;;3.22;;
70385;SDS011;63206;55.650;37.500;2022-12-07T01:36:36;7.63;;;2.85;;
70385;SDS011;63206;55.650;37.500;2022-12-07T01:41:40;8.32;;;2.38;;
70385;SDS011;63206;55.650;37.500;2022-12-07T01:44:20;7.72;;;2.20;;
70385;SDS011;63206;55.650;37.500;2022-12-07T01:46:52;8.10;;;2.78;;
70385;SDS011;63206;55.650;37.500;2022-12-07T01:49:31;7.85;;;2.92;;
70385;SDS011;63206;55.650;37.500;2022-12-07T01:52:18;7.28;;;2.53;;
70385;SDS011;63206;55.650;37.500;2022-12-07T01:54:46;11.90;;;3.03;;
70385;SDS011;63206;55.650;37.500;2022-12-07T01:57:17;10.32;;;2.92;;
70385;SDS011;63206;55.650;37.500;2022-12-07T01:59:47;9.60;;;2.45;;
70385;SDS011;63206;55.650;37.500;2022-12-07T02:02:22;9.25;;;3.28;;
70385;SDS011;63206;55.650;37.500;2022-12-07T02:04:49;8.82;;;2.90;;
70385;SDS011;63206;55.650;37.500;2022-12-07T02:07:18;9.88;;;3.13;;
70385;SDS011;63206;55.650;37.500;2022-12-07T02:12:16;7.03;;;2.45;;
70385;SDS011;63206;55.650;37.500;2022-12-07T02:14:42;9.77;;;3.10;;
70385;SDS011;63206;55.650;37.500;2022-12-07T02:22:47;8.55;;;2.97;;
70385;SDS011;63206;55.650;37.500;2022-12-07T02:25:29;11.30;;;3.50;;
70385;SDS011;63206;55.650;37.500;2022-12-07T02:28:12;9.48;;;3.05;;
70385;SDS011;63206;55.650;37.500;2022-12-07T02:30:51;7.25;;;2.80;;
70385;SDS011;63206;55.650;37.500;2022-12-07T02:33:43;8.73;;;3.03;;
70385;SDS011;63206;55.650;37.500;2022-12-07T02:38:39;6.25;;;2.80;;
70385;SDS011;63206;55.650;37.500;2022-12-07T02:44:15;13.52;;;3.10;;
70385;SDS011;63206;55.650;37.500;2022-12-07T02:46:58;6.82;;;3.05;;
70385;SDS011;63206;55.650;37.500;2022-12-07T02:49:30;9.23;;;2.78;;
70385;SDS011;63206;55.650;37.500;2022-12-07T02:52:00;8.32;;;3.15;;
70385;SDS011;63206;55.650;37.500;2022-12-07T02:54:26;9.55;;;3.05;;
70385;SDS011;63206;55.650;37.500;2022-12-07T02:59:40;9.48;;;3.22;;
70385;SDS011;63206;55.650;37.500;2022-12-07T03:07:33;8.27;;;2.58;;
70385;SDS011;63206;55.650;37.500;2022-12-07T03:15:24;8.20;;;3.28;;
70385;SDS011;63206;55.650;37.500;2022-12-07T03:17:55;9.75;;;3.38;;
70385;SDS011;63206;55.650;37.500;2022-12-07T03:20:34;8.50;;;2.70;;
70385;SDS011;63206;55.650;37.500;2022-12-07T03:23:04;8.57;;;3.28;;
70385;SDS011;63206;55.650;37.500;2022-12-07T03:25:37;6.22;;;2.38;;
70385;SDS011;63206;55.650;37.500;2022-12-07T03:28:10;8.07;;;2.97;;
70385;SDS011;63206;55.650;37.500;2022-12-07T03:30:45;8.73;;;3.10;;
70385;SDS011;63206;55.650;37.500;2022-12-07T03:33:20;6.03;;;2.40;;
70385;SDS011;63206;55.650;37.500;2022-12-07T03:38:33;8.85;;;3.13;;
70385;SDS011;63206;55.650;37.500;2022-12-07T03:41:08;7.07;;;2.83;;
70385;SDS011;63206;55.650;37.500;2022-12-07T03:43:39;9.70;;;3.42;;
70385;SDS011;63206;55.650;37.500;2022-12-07T03:48:52;11.05;;;3.20;;
70385;SDS011;63206;55.650;37.500;2022-12-07T03:51:33;6.97;;;1.92;;
70385;SDS011;63206;55.650;37.500;2022-12-07T03:54:13;9.13;;;2.70;;
70385;SDS011;63206;55.650;37.500;2022-12-07T03:56:40;8.95;;;2.55;;
70385;SDS011;63206;55.650;37.500;2022-12-07T03:59:11;8.85;;;3.17;;
70385;SDS011;63206;55.650;37.500;2022-12-07T04:01:44;8.90;;;3.42;;
70385;SDS011;63206;55.650;37.500;2022-12-07T04:04:12;8.18;;;2.63;;
70385;SDS011;63206;55.650;37.500;2022-12-07T04:06:41;9.98;;;2.72;;
70385;SDS011;63206;55.650;37.500;2022-12-07T04:09:13;7.13;;;2.80;;
70385;SDS011;63206;55.650;37.500;2022-12-07T04:11:43;6.00;;;2.47;;
70385;SDS011;63206;55.650;37.500;2022-12-07T04:14:11;8.73;;;2.58;;
70385;SDS011;63206;55.650;37.500;2022-12-07T04:16:50;8.18;;;2.72;;
70385;SDS011;63206;55.650;37.500;2022-12-07T04:19:20;7.38;;;2.83;;
70385;SDS011;63206;55.650;37.500;2022-12-07T04:21:47;11.07;;;2.95;;
70385;SDS011;63206;55.650;37.500;2022-12-07T04:24:19;9.80;;;2.88;;
70385;SDS011;63206;55.650;37.500;2022-12-07T04:26:53;7.05;;;2.53;;
70385;SDS011;63206;55.650;37.500;2022-12-07T04:29:20;8.10;;;2.75;;
70385;SDS011;63206;55.650;37.500;2022-12-07T04:31:49;8.30;;;2.85;;
70385;SDS011;63206;55.650;37.500;2022-12-07T04:34:18;8.60;;;2.78;;
70385;SDS011;63206;55.650;37.500;2022-12-07T04:36:50;13.02;;;3.15;;
70385;SDS011;63206;55.650;37.500;2022-12-07T04:39:20;6.30;;;2.90;;
70385;SDS011;63206;55.650;37.500;2022-12-07T04:41:49;9.88;;;2.88;;
70385;SDS011;63206;55.650;37.500;2022-12-07T04:44:23;2.97;;;1.88;;
70385;SDS011;63206;55.650;37.500;2022-12-07T04:46:54;7.20;;;2.33;;
70385;SDS011;63206;55.650;37.500;2022-12-07T04:49:28;5.97;;;2.38;;
70385;SDS011;63206;55.650;37.500;2022-12-07T04:51:54;8.90;;;2.50;;
70385;SDS011;63206;55.650;37.500;2022-12-07T04:54:25;7.32;;;3.08;;
70385;SDS011;63206;55.650;37.500;2022-12-07T04:56:54;9.25;;;2.72;;
70385;SDS011;63206;55.650;37.500;2022-12-07T04:59:20;7.20;;;2.75;;
70385;SDS011;63206;55.650;37.500;2022-12-07T05:01:51;6.55;;;2.63;;
70385;SDS011;63206;55.650;37.500;2022-12-07T05:04:23;9.50;;;2.90;;
70385;SDS011;63206;55.650;37.500;2022-12-07T05:06:52;7.22;;;2.53;;
70385;SDS011;63206;55.650;37.500;2022-12-07T05:09:20;7.10;;;2.85;;
70385;SDS011;63206;55.650;37.500;2022-12-07T05:11:49;7.72;;;2.97;;
70385;SDS011;63206;55.650;37.500;2022-12-07T05:14:18;8.93;;;3.00;;
70385;SDS011;63206;55.650;37.500;2022-12-07T05:16:50;7.63;;;2.75;;
70385;SDS011;63206;55.650;37.500;2022-12-07T05:19:22;6.13;;;2.65;;
70385;SDS011;63206;55.650;37.500;2022-12-07T05:21:51;7.45;;;2.60;;
70385;SDS011;63206;55.650;37.500;2022-12-07T05:24:17;10.32;;;3.15;;
70385;SDS011;63206;55.650;37.500;2022-12-07T05:26:48;9.65;;;2.85;;
70385;SDS011;63206;55.650;37.500;2022-12-07T05:29:17;7.78;;;2.90;;
70385;SDS011;63206;55.650;37.500;2022-12-07T05:31:48;10.30;;;3.00;;
70385;SDS011;63206;55.650;37.500;2022-12-07T05:34:17;8.18;;;2.47;;
70385;SDS011;63206;55.650;37.500;2022-12-07T05:36:45;7.30;;;2.30;;
70385;SDS011;63206;55.650;37.500;2022-12-07T05:39:14;11.10;;;3.53;;
70385;SDS011;63206;55.650;37.500;2022-12-07T05:41:42;6.30;;;2.53;;
70385;SDS011;63206;55.650;37.500;2022-12-07T05:44:36;7.93;;;3.03;;
70385;SDS011;63206;55.650;37.500;2022-12-07T05:47:02;7.82;;;2.65;;
70385;SDS011;63206;55.650;37.500;2022-12-07T05:49:34;8.63;;;3.47;;
70385;SDS011;63206;55.650;37.500;2022-12-07T05:52:00;8.57;;;3.38;;
70385;SDS011;63206;55.650;37.500;2022-12-07T05:54:29;6.00;;;2.22;;
70385;SDS011;63206;55.650;37.500;2022-12-07T05:57:00;10.00;;;3.13;;
70385;SDS011;63206;55.650;37.500;2022-12-07T05:59:26;10.88;;;3.65;;
70385;SDS011;63206;55.650;37.500;2022-12-07T06:02:01;8.57;;;2.95;;
70385;SDS011;63206;55.650;37.500;2022-12-07T06:04:31;7.68;;;2.63;;
70385;SDS011;63206;55.650;37.500;2022-12-07T06:07:03;7.63;;;2.90;;
70385;SDS011;63206;55.650;37.500;2022-12-07T06:09:31;8.50;;;2.63;;
70385;SDS011;63206;55.650;37.500;2022-12-07T06:12:06;8.05;;;2.97;;
70385;SDS011;63206;55.650;37.500;2022-12-07T06:14:51;7.57;;;2.75;;
70385;SDS011;63206;55.650;37.500;2022-12-07T06:17:19;8.75;;;3.00;;
70385;SDS011;63206;55.650;37.500;2022-12-07T06:19:45;9.48;;;3.70;;
70385;SDS011;63206;55.650;37.500;2022-12-07T06:22:13;7.25;;;2.88;;
70385;SDS011;63206;55.650;37.500;2022-12-07T06:24:44;7.57;;;3.55;;
70385;SDS011;63206;55.650;37.500;2022-12-07T06:27:15;10.32;;;3.53;;
70385;SDS011;63206;55.650;37.500;2022-12-07T06:29:44;8.05;;;2.75;;
70385;SDS011;63206;55.650;37.500;2022-12-07T06:32:15;7.78;;;2.90;;
70385;SDS011;63206;55.650;37.500;2022-12-07T06:34:42;10.02;;;4.10;;
70385;SDS011;63206;55.650;37.500;2022-12-07T06:37:08;9.07;;;3.70;;
70385;SDS011;63206;55.650;37.500;2022-12-07T06:39:39;8.50;;;3.55;;
70385;SDS011;63206;55.650;37.500;2022-12-07T06:42:10;8.32;;;2.92;;
70385;SDS011;63206;55.650;37.500;2022-12-07T06:44:39;9.25;;;3.30;;
70385;SDS011;63206;55.650;37.500;2022-12-07T06:47:11;6.95;;;3.00;;
70385;SDS011;63206;55.650;37.500;2022-12-07T06:49:42;9.30;;;3.33;;
70385;SDS011;63206;55.650;37.500;2022-12-07T06:52:14;10.65;;;3.75;;
70385;SDS011;63206;55.650;37.500;2022-12-07T06:54:48;9.60;;;3.03;;
70385;SDS011;63206;55.650;37.500;2022-12-07T06:57:23;10.90;;;3.70;;
70385;SDS011;63206;55.650;37.500;2022-12-07T06:59:52;8.80;;;2.65;;
70385;SDS011;63206;55.650;37.500;2022-12-07T07:02:20;12.75;;;4.05;;
70385;SDS011;63206;55.650;37.500;2022-12-07T07:04:46;7.40;;;2.78;;
70385;SDS011;63206;55.650;37.500;2022-12-07T07:07:15;10.63;;;3.45;;
70385;SDS011;63206;55.650;37.500;2022-12-07T07:09:44;12.38;;;3.95;;
70385;SDS011;63206;55.650;37.500;2022-12-07T07:12:12;8.25;;;3.60;;
70385;SDS011;63206;55.650;37.500;2022-12-07T07:14:41;8.40;;;2.85;;
70385;SDS011;63206;55.650;37.500;2022-12-07T07:17:07;11.45;;;3.67;;
70385;SDS011;63206;55.650;37.500;2022-12-07T07:19:33;12.63;;;4.45;;
70385;SDS011;63206;55.650;37.500;2022-12-07T07:21:59;10.15;;;3.80;;
70385;SDS011;63206;55.650;37.500;2022-12-07T07:24:25;15.75;;;4.95;;
70385;SDS011;63206;55.650;37.500;2022-12-07T07:26:54;9.55;;;3.58;;
70385;SDS011;63206;55.650;37.500;2022-12-07T07:29:23;9.45;;;3.83;;
70385;SDS011;63206;55.650;37.500;2022-12-07T07:31:51;9.73;;;3.50;;
70385;SDS011;63206;55.650;37.500;2022-12-07T07:34:20;9.00;;;2.92;;
70385;SDS011;63206;55.650;37.500;2022-12-07T07:36:46;10.57;;;3.42;;
70385;SDS011;63206;55.650;37.500;2022-12-07T07:39:17;5.88;;;3.25;;
70385;SDS011;63206;55.650;37.500;2022-12-07T07:41:48;10.57;;;3.70;;
70385;SDS011;63206;55.650;37.500;2022-12-07T07:44:27;11.55;;;4.57;;
70385;SDS011;63206;55.650;37.500;2022-12-07T07:46:55;7.70;;;2.80;;
70385;SDS011;63206;55.650;37.500;2022-12-07T07:49:21;12.93;;;3.97;;
70385;SDS011;63206;55.650;37.500;2022-12-07T07:51:47;9.43;;;3.40;;
70385;SDS011;63206;55.650;37.500;2022-12-07T07:54:22;10.40;;;4.22;;
70385;SDS011;63206;55.650;37.500;2022-12-07T07:56:48;7.97;;;3.45;;
70385;SDS011;63206;55.650;37.500;2022-12-07T07:59:17;9.43;;;3.45;;
70385;SDS011;63206;55.650;37.500;2022-12-07T08:01:45;13.68;;;4.47;;
70385;SDS011;63206;55.650;37.500;2022-12-07T08:04:19;9.05;;;3.75;;
70385;SDS011;63206;55.650;37.500;2022-12-07T08:06:48;9.65;;;3.25;;
70385;SDS011;63206;55.650;37.500;2022-12-07T08:09:17;10.45;;;3.75;;
70385;SDS011;63206;55.650;37.500;2022-12-07T08:11:46;9.15;;;3.15;;
70385;SDS011;63206;55.650;37.500;2022-12-07T08:14:19;11.30;;;3.72;;
70385;SDS011;63206;55.650;37.500;2022-12-07T08:16:51;10.85;;;3.95;;
70385;SDS011;63206;55.650;37.500;2022-12-07T08:19:20;14.48;;;4.18;;
70385;SDS011;63206;55.650;37.500;2022-12-07T08:21:49;9.63;;;3.60;;
70385;SDS011;63206;55.650;37.500;2022-12-07T08:24:23;12.50;;;4.13;;
70385;SDS011;63206;55.650;37.500;2022-12-07T08:26:56;11.20;;;4.60;;
70385;SDS011;63206;55.650;37.500;2022-12-07T08:29:27;11.63;;;4.20;;
70385;SDS011;63206;55.650;37.500;2022-12-07T08:34:22;13.07;;;3.90;;
70385;SDS011;63206;55.650;37.500;2022-12-07T08:36:57;11.35;;;3.42;;
70385;SDS011;63206;55.650;37.500;2022-12-07T08:39:29;10.45;;;3.22;;
70385;SDS011;63206;55.650;37.500;2022-12-07T08:42:00;10.90;;;4.38;;
70385;SDS011;63206;55.650;37.500;2022-12-07T08:44:31;11.32;;;3.55;;
70385;SDS011;63206;55.650;37.500;2022-12-07T08:47:02;7.63;;;3.10;;
70385;SDS011;63206;55.650;37.500;2022-12-07T08:49:39;14.50;;;4.43;;
70385;SDS011;63206;55.650;37.500;2022-12-07T08:52:12;8.80;;;3.10;;
70385;SDS011;63206;55.650;37.500;2022-12-07T08:54:43;12.45;;;3.78;;
70385;SDS011;63206;55.650;37.500;2022-12-07T08:57:16;12.55;;;4.10;;
70385;SDS011;63206;55.650;37.500;2022-12-07T08:59:47;9.43;;;3.60;;
70385;SDS011;63206;55.650;37.500;2022-12-07T09:02:21;10.27;;;3.97;;
70385;SDS011;63206;55.650;37.500;2022-12-07T09:04:50;8.98;;;3.35;;
70385;SDS011;63206;55.650;37.500;2022-12-07T09:07:18;9.57;;;3.97;;
70385;SDS011;63206;55.650;37.500;2022-12-07T09:09:47;11.63;;;3.58;;
70385;SDS011;63206;55.650;37.500;2022-12-07T09:12:21;12.05;;;4.88;;
70385;SDS011;63206;55.650;37.500;2022-12-07T09:14:53;12.02;;;4.05;;
70385;SDS011;63206;55.650;37.500;2022-12-07T09:17:21;14.80;;;4.88;;
70385;SDS011;63206;55.650;37.500;2022-12-07T09:19:49;14.10;;;4.40;;
70385;SDS011;63206;55.650;37.500;2022-12-07T09:22:15;11.93;;;4.00;;
70385;SDS011;63206;55.650;37.500;2022-12-07T09:24:44;13.77;;;4.03;;
70385;SDS011;63206;55.650;37.500;2022-12-07T09:27:16;8.85;;;3.42;;
70385;SDS011;63206;55.650;37.500;2022-12-07T09:29:52;10.75;;;3.67;;
70385;SDS011;63206;55.650;37.500;2022-12-07T09:32:21;11.60;;;3.65;;
70385;SDS011;63206;55.650;37.500;2022-12-07T09:34:53;14.13;;;4.20;;
70385;SDS011;63206;55.650;37.500;2022-12-07T09:37:26;12.98;;;4.72;;
70385;SDS011;63206;55.650;37.500;2022-12-07T09:39:59;11.13;;;3.83;;
70385;SDS011;63206;55.650;37.500;2022-12-07T09:45:01;10.18;;;3.90;;
70385;SDS011;63206;55.650;37.500;2022-12-07T09:47:36;13.18;;;4.07;;
70385;SDS011;63206;55.650;37.500;2022-12-07T09:50:11;9.80;;;3.53;;
70385;SDS011;63206;55.650;37.500;2022-12-07T09:52:41;8.82;;;3.40;;
70385;SDS011;63206;55.650;37.500;2022-12-07T09:55:16;12.23;;;3.60;;
70385;SDS011;63206;55.650;37.500;2022-12-07T09:57:50;10.55;;;3.47;;
70385;SDS011;63206;55.650;37.500;2022-12-07T10:00:21;12.07;;;3.47;;
70385;SDS011;63206;55.650;37.500;2022-12-07T10:02:55;6.90;;;2.45;;
70385;SDS011;63206;55.650;37.500;2022-12-07T10:07:59;7.13;;;2.67;;
70385;SDS011;63206;55.650;37.500;2022-12-07T10:10:34;6.10;;;2.42;;
70385;SDS011;63206;55.650;37.500;2022-12-07T10:15:54;8.60;;;3.17;;
70385;SDS011;63206;55.650;37.500;2022-12-07T10:18:24;10.02;;;3.45;;
70385;SDS011;63206;55.650;37.500;2022-12-07T10:23:41;11.45;;;3.25;;
70385;SDS011;63206;55.650;37.500;2022-12-07T10:26:19;10.50;;;3.38;;
70385;SDS011;63206;55.650;37.500;2022-12-07T10:28:48;12.05;;;4.00;;
70385;SDS011;63206;55.650;37.500;2022-12-07T10:31:29;8.57;;;3.10;;
70385;SDS011;63206;55.650;37.500;2022-12-07T10:34:08;12.00;;;4.32;;
70385;SDS011;63206;55.650;37.500;2022-12-07T10:36:41;9.93;;;3.42;;
70385;SDS011;63206;55.650;37.500;2022-12-07T10:39:15;11.95;;;4.00;;
70385;SDS011;63206;55.650;37.500;2022-12-07T10:41:59;8.55;;;2.95;;
70385;SDS011;63206;55.650;37.500;2022-12-07T10:44:34;7.93;;;2.80;;
70385;SDS011;63206;55.650;37.500;2022-12-07T10:50:11;10.15;;;2.97;;
70385;SDS011;63206;55.650;37.500;2022-12-07T10:53:00;10.27;;;3.50;;
70385;SDS011;63206;55.650;37.500;2022-12-07T11:03:37;13.77;;;3.95;;
70385;SDS011;63206;55.650;37.500;2022-12-07T11:08:43;11.98;;;3.95;;
70385;SDS011;63206;55.650;37.500;2022-12-07T11:21:51;15.73;;;4.53;;
70385;SDS011;63206;55.650;37.500;2022-12-07T11:27:06;9.82;;;3.83;;
70385;SDS011;63206;55.650;37.500;2022-12-07T11:37:07;12.85;;;4.60;;
70385;SDS011;63206;55.650;37.500;2022-12-07T11:39:43;11.55;;;3.97;;
70385;SDS011;63206;55.650;37.500;2022-12-07T11:42:16;11.05;;;4.40;;
70385;SDS011;63206;55.650;37.500;2022-12-07T11:50:14;15.38;;;3.97;;
70385;SDS011;63206;55.650;37.500;2022-12-07T11:52:57;11.63;;;4.43;;
70385;SDS011;63206;55.650;37.500;2022-12-07T11:55:32;7.28;;;3.15;;
70385;SDS011;63206;55.650;37.500;2022-12-07T12:00:48;12.07;;;3.47;;
70385;SDS011;63206;55.650;37.500;2022-12-07T12:03:21;19.05;;;5.35;;
70385;SDS011;63206;55.650;37.500;2022-12-07T12:05:49;9.52;;;3.42;;
70385;SDS011;63206;55.650;37.500;2022-12-07T12:08:20;13.05;;;4.47;;
70385;SDS011;63206;55.650;37.500;2022-12-07T12:16:15;14.57;;;5.30;;
70385;SDS011;63206;55.650;37.500;2022-12-07T12:19:05;13.60;;;3.70;;
70385;SDS011;63206;55.650;37.500;2022-12-07T12:21:46;14.07;;;3.97;;
70385;SDS011;63206;55.650;37.500;2022-12-07T12:24:17;11.50;;;3.78;;
70385;SDS011;63206;55.650;37.500;2022-12-07T12:26:48;11.80;;;4.30;;
70385;SDS011;63206;55.650;37.500;2022-12-07T12:29:23;13.15;;;4.65;;
70385;SDS011;63206;55.650;37.500;2022-12-07T12:42:51;13.63;;;4.50;;
70385;SDS011;63206;55.650;37.500;2022-12-07T12:45:30;15.48;;;5.22;;
70385;SDS011;63206;55.650;37.500;2022-12-07T13:01:31;13.32;;;3.88;;
70385;SDS011;63206;55.650;37.500;2022-12-07T13:03:36;14.15;;;5.80;;
70385;SDS011;63206;55.650;37.500;2022-12-07T13:06:28;15.30;;;4.82;;
70385;SDS011;63206;55.650;37.500;2022-12-07T13:09:00;11.73;;;3.95;;
70385;SDS011;63206;55.650;37.500;2022-12-07T13:11:34;11.95;;;3.20;;
70385;SDS011;63206;55.650;37.500;2022-12-07T13:16:50;11.45;;;4.22;;
70385;SDS011;63206;55.650;37.500;2022-12-07T13:24:57;24.55;;;6.70;;
70385;SDS011;63206;55.650;37.500;2022-12-07T13:27:26;15.52;;;5.20;;
70385;SDS011;63206;55.650;37.500;2022-12-07T13:29:56;11.40;;;4.05;;
70385;SDS011;63206;55.650;37.500;2022-12-07T13:32:23;17.33;;;5.78;;
70385;SDS011;63206;55.650;37.500;2022-12-07T13:34:49;14.73;;;4.22;;
70385;SDS011;63206;55.650;37.500;2022-12-07T13:37:28;11.02;;;4.13;;
70385;SDS011;63206;55.650;37.500;2022-12-07T13:39:59;17.85;;;5.95;;
70385;SDS011;63206;55.650;37.500;2022-12-07T13:42:26;11.90;;;4.63;;
70385;SDS011;63206;55.650;37.500;2022-12-07T13:44:56;14.90;;;4.07;;
70385;SDS011;63206;55.650;37.500;2022-12-07T13:49:54;13.82;;;4.65;;
70385;SDS011;63206;55.650;37.500;2022-12-07T13:52:24;10.50;;;4.05;;
70385;SDS011;63206;55.650;37.500;2022-12-07T13:57:25;15.00;;;5.72;;
70385;SDS011;63206;55.650;37.500;2022-12-07T13:59:55;15.43;;;5.22;;
70385;SDS011;63206;55.650;37.500;2022-12-07T14:02:28;12.88;;;4.57;;
70385;SDS011;63206;55.650;37.500;2022-12-07T14:05:08;18.48;;;5.18;;
70385;SDS011;63206;55.650;37.500;2022-12-07T14:07:34;15.02;;;4.70;;
70385;SDS011;63206;55.650;37.500;2022-12-07T14:10:05;17.95;;;5.25;;
70385;SDS011;63206;55.650;37.500;2022-12-07T14:12:37;12.07;;;3.97;;
70385;SDS011;63206;55.650;37.500;2022-12-07T14:15:03;15.65;;;4.93;;
70385;SDS011;63206;55.650;37.500;2022-12-07T14:17:29;13.32;;;3.90;;
70385;SDS011;63206;55.650;37.500;2022-12-07T14:20:00;15.18;;;4.75;;
70385;SDS011;63206;55.650;37.500;2022-12-07T14:22:33;11.98;;;4.22;;
70385;SDS011;63206;55.650;37.500;2022-12-07T14:27:33;15.65;;;5.53;;
70385;SDS011;63206;55.650;37.500;2022-12-07T14:30:02;11.15;;;4.22;;
70385;SDS011;63206;55.650;37.500;2022-12-07T14:32:35;10.75;;;4.75;;
70385;SDS011;63206;55.650;37.500;2022-12-07T14:35:11;9.45;;;4.22;;
70385;SDS011;63206;55.650;37.500;2022-12-07T14:40:18;9.57;;;3.50;;
70385;SDS011;63206;55.650;37.500;2022-12-07T14:42:51;13.32;;;4.30;;
70385;SDS011;63206;55.650;37.500;2022-12-07T14:45:21;14.93;;;4.80;;
70385;SDS011;63206;55.650;37.500;2022-12-07T14:47:50;9.63;;;3.83;;
70385;SDS011;63206;55.650;37.500;2022-12-07T14:50:25;11.45;;;3.28;;
70385;SDS011;63206;55.650;37.500;2022-12-07T14:53:00;11.35;;;3.50;;
70385;SDS011;63206;55.650;37.500;2022-12-07T14:55:30;11.98;;;3.53;;
70385;SDS011;63206;55.650;37.500;2022-12-07T14:57:59;10.77;;;4.28;;
70385;SDS011;63206;55.650;37.500;2022-12-07T15:00:28;11.65;;;4.15;;
70385;SDS011;63206;55.650;37.500;2022-12-07T15:02:54;14.18;;;4.07;;
70385;SDS011;63206;55.650;37.500;2022-12-07T15:05:20;12.88;;;4.20;;
70385;SDS011;63206;55.650;37.500;2022-12-07T15:07:46;7.80;;;3.50;;
70385;SDS011;63206;55.650;37.500;2022-12-07T15:12:45;13.10;;;4.80;;
70385;SDS011;63206;55.650;37.500;2022-12-07T15:15:12;12.43;;;3.78;;
70385;SDS011;63206;55.650;37.500;2022-12-07T15:17:40;17.00;;;4.35;;
70385;SDS011;63206;55.650;37.500;2022-12-07T15:20:09;15.10;;;5.78;;
70385;SDS011;63206;55.650;37.500;2022-12-07T15:22:39;15.38;;;4.97;;
70385;SDS011;63206;55.650;37.500;2022-12-07T15:25:05;8.02;;;3.78;;
70385;SDS011;63206;55.650;37.500;2022-12-07T15:27:32;12.55;;;4.20;;
70385;SDS011;63206;55.650;37.500;2022-12-07T15:29:59;15.90;;;5.15;;
70385;SDS011;63206;55.650;37.500;2022-12-07T15:32:28;12.90;;;4.72;;
70385;SDS011;63206;55.650;37.500;2022-12-07T15:34:57;15.43;;;5.10;;
70385;SDS011;63206;55.650;37.500;2022-12-07T15:37:25;16.83;;;5.13;;
70385;SDS011;63206;55.650;37.500;2022-12-07T15:39:51;15.32;;;4.50;;
70385;SDS011;63206;55.650;37.500;2022-12-07T15:42:17;12.32;;;4.78;;
70385;SDS011;63206;55.650;37.500;2022-12-07T15:44:43;12.95;;;4.38;;
70385;SDS011;63206;55.650;37.500;2022-12-07T15:47:28;12.57;;;4.22;;
70385;SDS011;63206;55.650;37.500;2022-12-07T15:49:53;12.93;;;4.13;;
70385;SDS011;63206;55.650;37.500;2022-12-07T15:52:19;15.10;;;4.93;;
70385;SDS011;63206;55.650;37.500;2022-12-07T15:54:45;10.55;;;3.67;;
70385;SDS011;63206;55.650;37.500;2022-12-07T15:57:13;9.55;;;2.97;;
70385;SDS011;63206;55.650;37.500;2022-12-07T15:59:39;14.60;;;4.72;;
70385;SDS011;63206;55.650;37.500;2022-12-07T16:02:05;10.70;;;4.20;;
70385;SDS011;63206;55.650;37.500;2022-12-07T16:04:31;11.52;;;4.03;;
70385;SDS011;63206;55.650;37.500;2022-12-07T16:06:59;15.07;;;4.30;;
70385;SDS011;63206;55.650;37.500;2022-12-07T16:09:25;11.63;;;3.42;;
70385;SDS011;63206;55.650;37.500;2022-12-07T16:11:55;7.70;;;4.13;;
70385;SDS011;63206;55.650;37.500;2022-12-07T16:14:23;9.93;;;3.17;;
70385;SDS011;63206;55.650;37.500;2022-12-07T16:16:49;13.75;;;5.03;;
70385;SDS011;63206;55.650;37.500;2022-12-07T16:19:15;11.80;;;3.80;;
70385;SDS011;63206;55.650;37.500;2022-12-07T16:21:41;13.52;;;4.10;;
70385;SDS011;63206;55.650;37.500;2022-12-07T16:24:08;13.52;;;4.43;;
70385;SDS011;63206;55.650;37.500;2022-12-07T16:26:38;14.90;;;3.78;;
70385;SDS011;63206;55.650;37.500;2022-12-07T16:29:04;12.68;;;4.90;;
70385;SDS011;63206;55.650;37.500;2022-12-07T16:31:36;11.02;;;4.25;;
70385;SDS011;63206;55.650;37.500;2022-12-07T16:34:06;12.85;;;3.90;;
70385;SDS011;63206;55.650;37.500;2022-12-07T16:36:32;14.23;;;4.70;;
70385;SDS011;63206;55.650;37.500;2022-12-07T16:39:03;12.55;;;3.85;;
70385;SDS011;63206;55.650;37.500;2022-12-07T16:41:35;11.50;;;3.33;;
70385;SDS011;63206;55.650;37.500;2022-12-07T16:44:09;13.40;;;3.55;;
70385;SDS011;63206;55.650;37.500;2022-12-07T16:46:41;12.45;;;4.70;;
70385;SDS011;63206;55.650;37.500;2022-12-07T16:49:12;12.60;;;3.78;;
70385;SDS011;63206;55.650;37.500;2022-12-07T16:51:41;11.75;;;4.65;;
70385;SDS011;63206;55.650;37.500;2022-12-07T16:54:09;15.57;;;5.05;;
70385;SDS011;63206;55.650;37.500;2022-12-07T16:56:35;10.32;;;4.35;;
70385;SDS011;63206;55.650;37.500;2022-12-07T16:59:07;14.85;;;4.32;;
70385;SDS011;63206;55.650;37.500;2022-12-07T17:01:33;12.73;;;4.68;;
70385;SDS011;63206;55.650;37.500;2022-12-07T17:04:00;10.43;;;4.22;;
70385;SDS011;63206;55.650;37.500;2022-12-07T17:06:29;11.38;;;4.20;;
70385;SDS011;63206;55.650;37.500;2022-12-07T17:08:59;14.27;;;4.45;;
70385;SDS011;63206;55.650;37.500;2022-12-07T17:11:26;16.20;;;5.60;;
70385;SDS011;63206;55.650;37.500;2022-12-07T17:13:55;10.30;;;3.92;;